createdAt,value
2022-11-28T00:01:35.520Z,100.00
2022-11-28T00:04:04.485Z,100.00
2022-11-28T00:06:32.356Z,100.00
2022-11-28T00:09:01.267Z,100.00
2022-11-28T00:11:29.164Z,100.00
2022-11-28T00:13:57.153Z,100.00
2022-11-28T00:16:25.388Z,100.00
2022-11-28T00:18:56.132Z,100.00
2022-11-28T00:21:25.983Z,100.00
2022-11-28T00:23:54.419Z,100.00
2022-11-28T00:26:25.539Z,100.00
2022-11-28T00:28:53.909Z,100.00
2022-11-28T00:31:23.892Z,100.00
2022-11-28T00:33:52.039Z,100.00
2022-11-28T00:36:22.453Z,100.00
2022-11-28T00:38:51.211Z,100.00
2022-11-28T00:41:22.250Z,100.00
2022-11-28T00:43:51.967Z,100.00
2022-11-28T00:46:21.520Z,100.00
2022-11-28T00:48:50.376Z,100.00
2022-11-28T00:51:20.144Z,100.00
2022-11-28T00:53:51.923Z,100.00
2022-11-28T00:56:21.946Z,100.00
2022-11-28T00:58:49.928Z,100.00
2022-11-28T01:01:20.123Z,100.00
2022-11-28T01:03:49.081Z,100.00
2022-11-28T01:06:23.196Z,100.00
2022-11-28T01:08:52.899Z,100.00
2022-11-28T01:11:21.252Z,100.00
2022-11-28T01:13:49.552Z,100.00
2022-11-28T01:16:17.994Z,100.00
2022-11-28T01:18:45.831Z,100.00
2022-11-28T01:21:13.737Z,100.00
2022-11-28T01:23:41.408Z,100.00
2022-11-28T01:26:12.496Z,100.00
2022-11-28T01:28:40.255Z,100.00
2022-11-28T01:31:10.047Z,100.00
2022-11-28T01:33:39.017Z,100.00
2022-11-28T01:36:07.380Z,100.00
2022-11-28T01:38:35.515Z,100.00
2022-11-28T01:41:03.331Z,100.00
2022-11-28T01:43:32.800Z,100.00
2022-11-28T01:46:00.572Z,100.00
2022-11-28T01:48:33.335Z,100.00
2022-11-28T01:51:04.044Z,100.00
2022-11-28T01:53:34.155Z,100.00
2022-11-28T01:56:07.243Z,100.00
2022-11-28T01:58:40.876Z,100.00
2022-11-28T02:01:09.431Z,100.00
2022-11-28T02:03:44.057Z,100.00
2022-11-28T02:06:13.957Z,100.00
2022-11-28T02:08:41.945Z,100.00
2022-11-28T02:11:38.163Z,100.00
2022-11-28T02:14:17.100Z,100.00
2022-11-28T02:16:57.956Z,100.00
2022-11-28T02:19:56.023Z,100.00
2022-11-28T02:22:26.492Z,100.00
2022-11-28T02:25:29.600Z,100.00
2022-11-28T02:28:39.413Z,100.00
2022-11-28T02:31:19.879Z,100.00
2022-11-28T02:33:53.951Z,100.00
2022-11-28T02:36:29.829Z,100.00
2022-11-28T02:39:10.576Z,100.00
2022-11-28T02:41:45.384Z,100.00
2022-11-28T02:44:17.726Z,100.00
2022-11-28T02:46:54.248Z,100.00
2022-11-28T02:49:28.553Z,100.00
2022-11-28T02:51:59.371Z,100.00
2022-11-28T02:54:28.360Z,100.00
2022-11-28T02:56:56.259Z,100.00
2022-11-28T02:59:33.156Z,100.00
2022-11-28T03:02:02.630Z,100.00
2022-11-28T03:04:41.879Z,100.00
2022-11-28T03:07:23.185Z,100.00
2022-11-28T03:10:01.992Z,100.00
2022-11-28T03:12:42.811Z,100.00
2022-11-28T03:15:13.196Z,100.00
2022-11-28T03:17:49.391Z,100.00
2022-11-28T03:20:23.827Z,100.00
2022-11-28T03:23:02.295Z,100.00
2022-11-28T03:25:35.387Z,100.00
2022-11-28T03:28:10.191Z,100.00
2022-11-28T03:30:43.136Z,100.00
2022-11-28T03:33:11.524Z,100.00
2022-11-28T03:35:47.884Z,100.00
2022-11-28T03:38:22.488Z,100.00
2022-11-28T03:40:54.911Z,100.00
2022-11-28T03:43:27.875Z,100.00
2022-11-28T03:45:59.408Z,100.00
2022-11-28T03:48:32.589Z,100.00
2022-11-28T03:51:07.971Z,100.00
2022-11-28T03:53:42.331Z,100.00
2022-11-28T03:56:15.997Z,100.00
2022-11-28T03:58:50.826Z,100.00
2022-11-28T04:01:26.886Z,100.00
2022-11-28T04:03:59.505Z,100.00
2022-11-28T04:06:36.023Z,100.00
2022-11-28T04:09:12.983Z,100.00
2022-11-28T04:11:46.196Z,100.00
2022-11-28T04:14:21.503Z,100.00
2022-11-28T04:16:55.792Z,100.00
2022-11-28T04:19:29.395Z,100.00
2022-11-28T04:22:04.408Z,100.00
2022-11-28T04:24:35.859Z,100.00
2022-11-28T04:27:07.455Z,100.00
2022-11-28T04:29:40.337Z,100.00
2022-11-28T04:32:11.581Z,100.00
2022-11-28T04:34:41.750Z,100.00
2022-11-28T04:37:14.405Z,100.00
2022-11-28T04:39:45.796Z,100.00
2022-11-28T04:42:18.102Z,100.00
2022-11-28T04:44:50.199Z,100.00
2022-11-28T04:47:18.895Z,100.00
2022-11-28T04:49:46.741Z,100.00
2022-11-28T04:52:21.301Z,100.00
2022-11-28T04:54:58.198Z,100.00
2022-11-28T04:57:31.844Z,100.00
2022-11-28T05:00:02.572Z,100.00
2022-11-28T05:02:31.372Z,100.00
2022-11-28T05:04:59.707Z,100.00
2022-11-28T05:07:28.913Z,100.00
2022-11-28T05:09:57.713Z,100.00
2022-11-28T05:12:25.617Z,100.00
2022-11-28T05:14:53.357Z,100.00
2022-11-28T05:17:21.124Z,100.00
2022-11-28T05:19:48.943Z,100.00
2022-11-28T05:22:16.784Z,100.00
2022-11-28T05:24:46.183Z,100.00
2022-11-28T05:27:14.021Z,100.00
2022-11-28T05:29:46.872Z,100.00
2022-11-28T05:32:17.408Z,100.00
2022-11-28T05:34:45.097Z,100.00
2022-11-28T05:37:12.873Z,100.00
2022-11-28T05:39:41.153Z,100.00
2022-11-28T05:42:10.446Z,100.00
2022-11-28T05:44:38.435Z,100.00
2022-11-28T05:47:06.383Z,100.00
2022-11-28T05:49:34.136Z,100.00
2022-11-28T05:52:01.850Z,100.00
2022-11-28T05:54:30.606Z,100.00
2022-11-28T05:56:58.375Z,100.00
2022-11-28T05:59:27.870Z,100.00
2022-11-28T06:01:55.703Z,100.00
2022-11-28T06:04:23.545Z,100.00
2022-11-28T06:06:51.939Z,100.00
2022-11-28T06:09:24.525Z,100.00
2022-11-28T06:11:53.422Z,100.00
2022-11-28T06:14:21.208Z,100.00
2022-11-28T06:16:50.371Z,100.00
2022-11-28T06:19:18.152Z,100.00
2022-11-28T06:21:45.988Z,100.00
2022-11-28T06:24:13.696Z,100.00
2022-11-28T06:26:41.470Z,100.00
2022-11-28T06:29:09.222Z,100.00
2022-11-28T06:31:37.300Z,100.00
2022-11-28T06:34:06.452Z,100.00
2022-11-28T06:36:35.098Z,100.00
2022-11-28T06:39:02.836Z,100.00
2022-11-28T06:41:30.601Z,100.00
2022-11-28T06:43:58.510Z,100.00
2022-11-28T06:46:26.385Z,100.00
2022-11-28T06:48:54.193Z,100.00
2022-11-28T06:51:23.325Z,100.00
2022-11-28T06:53:51.188Z,100.00
2022-11-28T06:56:21.079Z,100.00
2022-11-28T06:58:54.280Z,100.00
2022-11-28T07:01:23.718Z,100.00
2022-11-28T07:03:54.361Z,100.00
2022-11-28T07:06:25.267Z,100.00
2022-11-28T07:08:53.648Z,100.00
2022-11-28T07:11:23.646Z,100.00
2022-11-28T07:13:52.265Z,100.00
2022-11-28T07:16:21.769Z,100.00
2022-11-28T07:18:49.858Z,100.00
2022-11-28T07:21:18.010Z,100.00
2022-11-28T07:23:47.735Z,100.00
2022-11-28T07:26:17.410Z,100.00
2022-11-28T07:28:46.472Z,100.00
2022-11-28T07:31:17.154Z,100.00
2022-11-28T07:33:46.902Z,100.00
2022-11-28T07:36:16.074Z,100.00
2022-11-28T07:38:44.107Z,100.00
2022-11-28T07:41:14.776Z,100.00
2022-11-28T07:43:43.899Z,100.00
2022-11-28T07:46:14.213Z,100.00
2022-11-28T07:48:42.414Z,100.00
2022-11-28T07:51:12.580Z,100.00
2022-11-28T07:53:41.569Z,100.00
2022-11-28T07:56:13.919Z,100.00
2022-11-28T07:58:44.801Z,100.00
2022-11-28T08:01:14.415Z,100.00
2022-11-28T08:03:42.355Z,100.00
2022-11-28T08:06:10.381Z,100.00
2022-11-28T08:08:38.353Z,100.00
2022-11-28T08:11:08.279Z,100.00
2022-11-28T08:13:37.320Z,100.00
2022-11-28T08:16:08.276Z,100.00
2022-11-28T08:18:36.451Z,100.00
2022-11-28T08:21:05.872Z,100.00
2022-11-28T08:23:34.868Z,100.00
2022-11-28T08:26:02.815Z,100.00
2022-11-28T08:28:31.321Z,100.00
2022-11-28T08:30:59.579Z,98.73
2022-11-28T08:33:28.953Z,100.00
2022-11-28T08:35:56.727Z,99.52
2022-11-28T08:38:24.498Z,100.00
2022-11-28T08:40:52.841Z,100.00
2022-11-28T08:43:20.649Z,100.00
2022-11-28T08:45:49.410Z,100.00
2022-11-28T08:48:17.261Z,100.00
2022-11-28T08:50:49.108Z,99.60
2022-11-28T08:53:18.411Z,100.00
2022-11-28T08:55:46.694Z,100.00
2022-11-28T08:58:15.386Z,99.79
2022-11-28T09:00:43.412Z,100.00
2022-11-28T09:03:15.363Z,100.00
2022-11-28T09:05:45.282Z,100.00
2022-11-28T09:08:14.473Z,100.00
2022-11-28T09:10:43.852Z,100.00
2022-11-28T09:13:12.972Z,99.92
2022-11-28T09:15:41.846Z,99.43
2022-11-28T09:18:10.266Z,100.00
2022-11-28T09:20:38.593Z,100.00
2022-11-28T09:23:06.442Z,100.00
2022-11-28T09:25:37.512Z,100.00
2022-11-28T09:28:05.517Z,100.00
2022-11-28T09:30:34.139Z,100.00
2022-11-28T09:33:01.903Z,100.00
2022-11-28T09:35:29.638Z,98.88
2022-11-28T09:37:59.200Z,99.06
2022-11-28T09:40:32.665Z,98.53
2022-11-28T09:43:02.259Z,98.90
2022-11-28T09:45:31.540Z,96.95
2022-11-28T09:48:08.070Z,99.26
2022-11-28T09:50:41.027Z,99.18
2022-11-28T09:53:21.260Z,97.65
2022-11-28T09:55:51.564Z,98.60
2022-11-28T09:58:28.400Z,94.90
2022-11-28T10:01:06.805Z,95.90
2022-11-28T10:03:43.267Z,96.77
2022-11-28T10:06:19.754Z,95.49
2022-11-28T10:09:03.884Z,96.75
2022-11-28T10:11:45.732Z,98.02
2022-11-28T10:14:41.993Z,98.08
2022-11-28T10:17:22.986Z,99.03
2022-11-28T10:19:56.058Z,98.95
2022-11-28T10:22:31.108Z,98.71
2022-11-28T10:25:05.180Z,100.00
2022-11-28T10:27:36.236Z,100.00
2022-11-28T10:30:09.449Z,100.00
2022-11-28T10:32:41.756Z,100.00
2022-11-28T10:35:28.071Z,100.00
2022-11-28T10:37:56.388Z,100.00
2022-11-28T10:40:31.871Z,100.00
2022-11-28T10:43:03.420Z,100.00
2022-11-28T10:45:42.978Z,100.00
2022-11-28T10:51:23.607Z,100.00
2022-11-28T10:54:01.468Z,100.00
2022-11-28T10:56:40.096Z,100.00
2022-11-28T10:59:17.808Z,100.00
2022-11-28T11:01:50.353Z,100.00
2022-11-28T11:04:20.837Z,100.00
2022-11-28T11:07:09.187Z,100.00
2022-11-28T11:09:40.763Z,100.00
2022-11-28T11:12:16.813Z,100.00
2022-11-28T11:14:45.154Z,100.00
2022-11-28T11:17:31.258Z,100.00
2022-11-28T11:20:02.896Z,99.42
2022-11-28T11:22:32.448Z,99.09
2022-11-28T11:25:08.620Z,97.81
2022-11-28T11:27:37.870Z,96.28
2022-11-28T11:30:18.774Z,96.67
2022-11-28T11:32:51.650Z,98.79
2022-11-28T11:35:23.349Z,97.86
2022-11-28T11:37:51.187Z,99.04
2022-11-28T11:40:25.725Z,97.67
2022-11-28T11:42:56.027Z,99.95
2022-11-28T11:45:30.721Z,99.08
2022-11-28T11:48:00.272Z,98.75
2022-11-28T11:50:30.567Z,99.66
2022-11-28T11:53:03.020Z,99.62
2022-11-28T11:55:32.755Z,99.18
2022-11-28T11:58:06.667Z,96.29
2022-11-28T12:00:38.936Z,98.28
2022-11-28T12:03:21.186Z,96.71
2022-11-28T12:08:46.175Z,95.19
2022-11-28T12:11:19.448Z,95.33
2022-11-28T12:13:47.549Z,94.63
2022-11-28T12:16:33.750Z,95.06
2022-11-28T12:19:14.528Z,94.81
2022-11-28T12:21:55.568Z,94.26
2022-11-28T12:24:34.624Z,92.88
2022-11-28T12:27:07.588Z,94.26
2022-11-28T12:29:46.423Z,91.35
2022-11-28T12:32:37.976Z,92.43
2022-11-28T12:35:22.041Z,92.80
2022-11-28T12:38:12.548Z,93.44
2022-11-28T12:40:54.446Z,91.82
2022-11-28T12:43:37.871Z,91.27
2022-11-28T12:46:14.743Z,92.02
2022-11-28T12:48:59.929Z,92.69
2022-11-28T12:51:39.139Z,90.74
2022-11-28T12:54:25.300Z,90.29
2022-11-28T12:57:01.754Z,88.21
2022-11-28T12:59:36.103Z,85.89
2022-11-28T13:02:22.573Z,88.15
2022-11-28T13:05:07.684Z,87.20
2022-11-28T13:07:44.616Z,88.55
2022-11-28T13:10:21.620Z,87.50
2022-11-28T13:12:58.125Z,87.40
2022-11-28T13:15:49.993Z,88.38
2022-11-28T13:18:32.920Z,88.81
2022-11-28T13:21:07.711Z,85.80
2022-11-28T13:23:45.077Z,85.48
2022-11-28T13:26:22.526Z,79.83
2022-11-28T13:28:57.205Z,80.92
2022-11-28T13:31:33.882Z,81.71
2022-11-28T13:34:02.122Z,82.45
2022-11-28T13:39:34.357Z,80.15
2022-11-28T13:45:03.299Z,80.73
2022-11-28T13:47:35.054Z,78.79
2022-11-28T13:50:39.540Z,80.83
2022-11-28T13:53:26.355Z,79.99
2022-11-28T13:56:24.349Z,76.60
2022-11-28T13:58:56.789Z,79.46
2022-11-28T14:01:26.016Z,81.53
2022-11-28T14:04:08.769Z,85.54
2022-11-28T14:06:44.567Z,90.05
2022-11-28T14:09:30.202Z,90.72
2022-11-28T14:12:19.204Z,94.30
2022-11-28T14:15:06.578Z,95.76
2022-11-28T14:17:55.185Z,95.86
2022-11-28T14:20:33.403Z,97.91
2022-11-28T14:23:16.988Z,100.00
2022-11-28T14:25:47.370Z,100.00
2022-11-28T14:28:24.502Z,100.00
2022-11-28T14:31:01.003Z,100.00
2022-11-28T14:33:36.745Z,100.00
2022-11-28T14:36:24.973Z,100.00
2022-11-28T14:39:20.519Z,100.00
2022-11-28T14:42:51.871Z,100.00
2022-11-28T14:45:44.472Z,99.78
2022-11-28T14:48:20.478Z,100.00
2022-11-28T14:50:56.200Z,100.00
2022-11-28T14:53:48.150Z,99.89
2022-11-28T14:56:29.771Z,99.78
2022-11-28T14:59:01.456Z,100.00
2022-11-28T15:01:47.131Z,100.00
2022-11-28T15:04:37.452Z,100.00
2022-11-28T15:07:11.745Z,100.00
2022-11-28T15:09:51.544Z,100.00
2022-11-28T15:12:27.752Z,100.00
2022-11-28T15:14:58.179Z,100.00
2022-11-28T15:17:33.353Z,100.00
2022-11-28T15:20:05.898Z,98.91
2022-11-28T15:22:40.328Z,99.36
2022-11-28T15:25:19.556Z,99.96
2022-11-28T15:27:47.529Z,98.62
2022-11-28T15:30:17.008Z,99.78
2022-11-28T15:32:46.913Z,100.00
2022-11-28T15:35:17.377Z,100.00
2022-11-28T15:37:49.454Z,100.00
2022-11-28T15:40:30.044Z,99.80
2022-11-28T15:42:59.828Z,100.00
2022-11-28T15:45:30.029Z,98.42
2022-11-28T15:48:00.036Z,99.44
2022-11-28T15:50:30.606Z,100.00
2022-11-28T15:53:00.833Z,100.00
2022-11-28T15:55:30.720Z,99.70
2022-11-28T15:58:12.408Z,99.44
2022-11-28T16:00:42.818Z,99.48
2022-11-28T16:03:17.066Z,98.89
2022-11-28T16:05:46.047Z,98.39
2022-11-28T16:08:23.397Z,96.89
2022-11-28T16:10:51.220Z,97.89
2022-11-28T16:13:24.308Z,98.30
2022-11-28T16:15:55.682Z,97.14
2022-11-28T16:18:27.515Z,97.61
2022-11-28T16:20:56.393Z,96.69
2022-11-28T16:23:30.043Z,98.67
2022-11-28T16:26:02.556Z,99.93
2022-11-28T16:28:33.237Z,99.79
2022-11-28T16:31:01.203Z,98.97
2022-11-28T16:33:38.844Z,96.60
2022-11-28T16:36:20.204Z,98.74
2022-11-28T16:38:49.254Z,98.10
2022-11-28T16:41:18.795Z,97.78
2022-11-28T16:43:50.330Z,98.84
2022-11-28T16:46:23.843Z,97.97
2022-11-28T16:48:55.280Z,97.93
2022-11-28T16:51:37.991Z,97.52
2022-11-28T16:54:29.809Z,95.09
2022-11-28T16:57:08.744Z,94.10
2022-11-28T16:59:36.512Z,94.23
2022-11-28T17:02:04.720Z,94.42
2022-11-28T17:04:33.911Z,95.94
2022-11-28T17:07:05.276Z,96.06
2022-11-28T17:09:34.135Z,97.38
2022-11-28T17:12:05.450Z,98.23
2022-11-28T17:14:33.586Z,97.12
2022-11-28T17:17:01.400Z,98.88
2022-11-28T17:19:29.091Z,97.45
2022-11-28T17:22:00.917Z,97.96
2022-11-28T17:24:34.172Z,96.84
2022-11-28T17:27:02.396Z,96.13
2022-11-28T17:29:30.357Z,95.39
2022-11-28T17:31:58.884Z,96.33
2022-11-28T17:34:30.696Z,97.34
2022-11-28T17:37:00.517Z,97.01
2022-11-28T17:39:29.029Z,96.63
2022-11-28T17:41:59.101Z,96.00
2022-11-28T17:44:29.289Z,93.42
2022-11-28T17:46:58.840Z,92.67
2022-11-28T17:49:26.620Z,92.50
2022-11-28T17:51:55.897Z,91.38
2022-11-28T17:54:26.709Z,90.07
2022-11-28T17:56:55.223Z,94.66
2022-11-28T17:59:24.768Z,95.14
2022-11-28T18:01:52.655Z,95.66
2022-11-28T18:04:20.450Z,97.40
2022-11-28T18:06:48.731Z,97.92
2022-11-28T18:09:16.849Z,98.39
2022-11-28T18:11:46.385Z,98.33
2022-11-28T18:14:18.112Z,97.68
2022-11-28T18:16:47.287Z,97.11
2022-11-28T18:19:15.578Z,97.14
2022-11-28T18:21:43.343Z,95.45
2022-11-28T18:24:11.282Z,95.77
2022-11-28T18:26:38.965Z,94.44
2022-11-28T18:29:08.455Z,94.21
2022-11-28T18:31:36.460Z,93.39
2022-11-28T18:34:05.988Z,93.12
2022-11-28T18:36:35.599Z,92.97
2022-11-28T18:39:06.328Z,95.46
2022-11-28T18:41:34.033Z,98.21
2022-11-28T18:44:03.711Z,98.86
2022-11-28T18:46:34.121Z,99.24
2022-11-28T18:49:03.966Z,98.34
2022-11-28T18:51:33.904Z,98.59
2022-11-28T18:54:04.721Z,100.00
2022-11-28T18:56:32.817Z,100.00
2022-11-28T18:59:00.700Z,98.16
2022-11-28T19:01:30.703Z,100.00
2022-11-28T19:04:02.537Z,99.37
2022-11-28T19:06:30.736Z,97.50
2022-11-28T19:09:00.815Z,98.79
2022-11-28T19:11:29.622Z,97.41
2022-11-28T19:13:57.831Z,97.46
2022-11-28T19:16:27.989Z,96.10
2022-11-28T19:18:56.365Z,95.43
2022-11-28T19:21:27.637Z,94.58
2022-11-28T19:23:56.385Z,95.03
2022-11-28T19:26:26.270Z,94.16
2022-11-28T19:28:54.761Z,95.59
2022-11-28T19:31:24.301Z,97.07
2022-11-28T19:34:00.980Z,96.78
2022-11-28T19:36:31.929Z,98.27
2022-11-28T19:39:00.165Z,98.39
2022-11-28T19:41:29.833Z,96.58
2022-11-28T19:43:57.684Z,98.42
2022-11-28T19:46:29.226Z,97.46
2022-11-28T19:48:59.902Z,97.43
2022-11-28T19:51:27.727Z,97.09
2022-11-28T19:54:02.686Z,96.71
2022-11-28T19:56:31.370Z,96.57
2022-11-28T19:58:59.962Z,95.88
2022-11-28T20:01:28.042Z,95.41
2022-11-28T20:03:56.052Z,94.87
2022-11-28T20:06:25.784Z,94.08
2022-11-28T20:08:55.221Z,95.96
2022-11-28T20:11:26.196Z,95.68
2022-11-28T20:13:57.217Z,95.45
2022-11-28T20:16:25.306Z,96.39
2022-11-28T20:18:53.019Z,96.77
2022-11-28T20:21:21.701Z,97.15
2022-11-28T20:23:51.091Z,97.87
2022-11-28T20:26:21.292Z,99.26
2022-11-28T20:28:50.947Z,96.79
2022-11-28T20:31:20.636Z,97.10
2022-11-28T20:33:48.704Z,98.11
2022-11-28T20:36:18.600Z,96.70
2022-11-28T20:38:46.929Z,97.50
2022-11-28T20:41:15.775Z,96.77
2022-11-28T20:43:43.712Z,96.64
2022-11-28T20:46:14.356Z,95.71
2022-11-28T20:48:42.720Z,96.36
2022-11-28T20:51:11.243Z,94.29
2022-11-28T20:53:41.195Z,95.08
2022-11-28T20:56:12.278Z,94.82
2022-11-28T20:58:40.251Z,95.71
2022-11-28T21:01:08.118Z,94.02
2022-11-28T21:03:37.852Z,95.71
2022-11-28T21:06:05.647Z,97.04
2022-11-28T21:08:33.818Z,96.38
2022-11-28T21:11:05.907Z,96.32
2022-11-28T21:13:33.651Z,97.11
2022-11-28T21:16:06.253Z,96.40
2022-11-28T21:18:34.483Z,97.84
2022-11-28T21:21:08.003Z,98.43
2022-11-28T21:23:35.950Z,98.06
2022-11-28T21:26:08.469Z,99.25
2022-11-28T21:28:36.912Z,96.17
2022-11-28T21:31:07.784Z,95.24
2022-11-28T21:33:35.616Z,97.75
2022-11-28T21:36:06.848Z,98.90
2022-11-28T21:38:35.160Z,96.78
2022-11-28T21:41:03.254Z,95.78
2022-11-28T21:43:31.393Z,96.66
2022-11-28T21:46:03.101Z,96.56
2022-11-28T21:48:32.079Z,96.36
2022-11-28T21:51:00.300Z,97.24
2022-11-28T21:53:30.093Z,97.68
2022-11-28T21:56:01.736Z,98.10
2022-11-28T21:58:30.744Z,97.35
2022-11-28T22:00:59.300Z,97.11
2022-11-28T22:03:28.011Z,96.12
2022-11-28T22:06:01.090Z,95.55
2022-11-28T22:08:30.683Z,98.25
2022-11-28T22:11:00.908Z,97.39
2022-11-28T22:13:29.231Z,98.13
2022-11-28T22:15:57.261Z,96.78
2022-11-28T22:18:25.307Z,98.46
2022-11-28T22:20:53.324Z,98.32
2022-11-28T22:23:21.192Z,99.18
2022-11-28T22:25:53.653Z,97.64
2022-11-28T22:28:21.511Z,96.29
2022-11-28T22:30:49.267Z,96.62
2022-11-28T22:33:17.154Z,96.96
2022-11-28T22:35:45.552Z,98.24
2022-11-28T22:38:13.718Z,96.21
2022-11-28T22:40:41.582Z,98.48
2022-11-28T22:43:10.779Z,99.32
2022-11-28T22:45:38.621Z,97.57
2022-11-28T22:48:07.221Z,98.21
2022-11-28T22:50:39.979Z,95.83
2022-11-28T22:53:08.014Z,96.35
2022-11-28T22:55:36.204Z,96.76
2022-11-28T22:58:03.902Z,96.41
2022-11-28T23:00:33.043Z,95.92
2022-11-28T23:03:00.937Z,96.82
2022-11-28T23:05:28.752Z,98.00
2022-11-28T23:07:56.733Z,96.71
2022-11-28T23:10:25.477Z,96.89
2022-11-28T23:12:53.188Z,96.32
2022-11-28T23:15:21.292Z,95.06
2022-11-28T23:17:51.017Z,96.04
2022-11-28T23:20:19.150Z,95.44
2022-11-28T23:22:46.875Z,94.74
2022-11-28T23:25:15.345Z,94.89
2022-11-28T23:27:43.113Z,95.09
2022-11-28T23:30:11.680Z,95.50
2022-11-28T23:32:39.399Z,95.94
2022-11-28T23:35:09.254Z,96.01
2022-11-28T23:37:39.336Z,94.08
2022-11-28T23:40:08.616Z,96.88
2022-11-28T23:42:36.284Z,96.75
2022-11-28T23:45:04.361Z,94.46
2022-11-28T23:47:32.581Z,96.24
2022-11-28T23:50:00.341Z,96.28
2022-11-28T23:52:29.516Z,95.50
2022-11-28T23:54:57.227Z,96.35
2022-11-28T23:57:24.996Z,96.41
2022-11-28T23:59:52.836Z,94.85
